Time;durP1;ratioP1;P1;durP2;ratioP2;P2;SDS_P1;SDS_P2;PMS_P1;PMS_P2;Temp;Humidity;BMP_temperature;BMP_pressure;BME280_temperature;BME280_humidity;BME280_pressure;Samples;Min_cycle;Max_cycle;Signal;HPM_P1;HPM_P2
2022/06/29 00:00:13;;;;;;;7.83;3.67;;;;;15.30;101039.00;;;;10507413;28;20216;-78
2022/06/29 00:05:17;;;;;;;4.57;2.80;;;;;15.30;101037.00;;;;10465306;28;20958;-78
2022/06/29 00:10:20;;;;;;;3.63;3.13;;;;;15.20;101032.00;;;;10465722;28;20178;-78
2022/06/29 00:15:22;;;;;;;6.97;3.67;;;;;15.10;101031.00;;;;10497557;28;20676;-77
2022/06/29 00:20:24;;;;;;;4.10;2.93;;;;;15.00;101032.00;;;;10482219;28;20201;-78
2022/06/29 00:25:26;;;;;;;4.87;3.27;;;;;14.90;101017.00;;;;10449067;28;20220;-78
2022/06/29 00:30:28;;;;;;;6.37;3.50;;;;;14.90;101013.00;;;;10464781;28;20228;-78
2022/06/29 00:35:30;;;;;;;3.77;3.20;;;;;14.90;101009.00;;;;10482888;28;20687;-78
2022/06/29 00:40:32;;;;;;;6.60;3.17;;;;;14.80;101008.00;;;;10481825;28;20586;-78
2022/06/29 00:45:35;;;;;;;5.77;3.50;;;;;14.90;101000.00;;;;10464971;28;20190;-78
2022/06/29 00:50:42;;;;;;;3.37;3.03;;;;;14.90;101003.00;;;;10464320;28;20197;-75
2022/06/29 00:55:47;;;;;;;6.57;3.20;;;;;14.90;101002.00;;;;10462410;28;20229;-75
2022/06/29 01:00:49;;;;;;;6.60;3.57;;;;;14.90;100998.00;;;;10482682;28;20235;-75
2022/06/29 01:05:51;;;;;;;6.73;4.00;;;;;14.80;101001.00;;;;10462169;28;20227;-75
2022/06/29 01:10:53;;;;;;;7.20;4.23;;;;;14.70;101003.00;;;;10465030;28;20193;-75
2022/06/29 01:15:55;;;;;;;8.43;3.90;;;;;14.70;101000.00;;;;10470395;28;20274;-75
2022/06/29 01:21:03;;;;;;;6.00;3.63;;;;;14.60;100990.00;;;;10499584;28;20292;-75
2022/06/29 01:26:11;;;;;;;5.50;4.13;;;;;14.50;100991.00;;;;10444748;28;20197;-75
2022/06/29 01:31:14;;;;;;;5.23;4.10;;;;;14.40;100997.00;;;;10465299;28;20207;-75
2022/06/29 01:36:17;;;;;;;6.37;3.80;;;;;14.30;100991.00;;;;10486203;28;20205;-75
2022/06/29 01:41:19;;;;;;;6.87;3.63;;;;;14.30;100985.00;;;;10502269;28;20193;-75
2022/06/29 01:46:21;;;;;;;6.70;4.40;;;;;14.20;100981.00;;;;10485695;28;20552;-75
2022/06/29 01:51:24;;;;;;;7.43;3.97;;;;;14.20;100983.00;;;;10518399;28;20208;-75
2022/06/29 01:56:26;;;;;;;6.87;4.10;;;;;14.10;100980.00;;;;10485309;28;20220;-75
2022/06/29 02:01:28;;;;;;;5.23;3.63;;;;;14.10;100979.00;;;;10501938;28;20283;-75
2022/06/29 02:06:30;;;;;;;7.57;3.90;;;;;14.10;100982.00;;;;10501691;28;20193;-75
2022/06/29 02:11:32;;;;;;;7.97;4.33;;;;;14.00;100967.00;;;;10485298;28;20189;-75
2022/06/29 02:16:34;;;;;;;5.77;4.50;;;;;13.90;100953.00;;;;10485224;28;20204;-75
2022/06/29 02:21:36;;;;;;;5.67;4.60;;;;;13.90;100958.00;;;;10518205;28;20204;-75
2022/06/29 02:26:38;;;;;;;5.07;3.80;;;;;13.80;100956.00;;;;10468651;28;20532;-75
2022/06/29 02:37:01;;;;;;;7.57;4.30;;;;;13.70;100947.00;;;;10509259;28;20208;-75
2022/06/29 02:42:04;;;;;;;4.80;4.17;;;;;13.70;100935.00;;;;10492472;28;20188;-75
2022/06/29 02:47:07;;;;;;;5.50;4.07;;;;;13.60;100935.00;;;;10509087;28;20177;-75
2022/06/29 02:52:09;;;;;;;6.33;4.10;;;;;13.60;100934.00;;;;10509115;28;20726;-75
2022/06/29 02:57:11;;;;;;;11.40;5.40;;;;;13.50;100935.00;;;;10524818;28;20221;-75
2022/06/29 03:02:13;;;;;;;6.20;4.67;;;;;13.40;100938.00;;;;10525032;28;20205;-75
2022/06/29 03:07:15;;;;;;;5.27;4.20;;;;;13.40;100927.00;;;;10525413;28;20177;-74
2022/06/29 03:12:17;;;;;;;5.23;4.73;;;;;13.40;100928.00;;;;10525394;28;20181;-75
2022/06/29 03:17:19;;;;;;;6.47;4.90;;;;;13.40;100930.00;;;;10490942;28;20249;-75
2022/06/29 03:22:21;;;;;;;5.17;4.30;;;;;13.40;100918.00;;;;10507794;28;20201;-75
2022/06/29 03:27:23;;;;;;;16.23;4.73;;;;;13.40;100915.00;;;;10507666;28;20212;-75
2022/06/29 03:32:25;;;;;;;12.07;4.77;;;;;13.40;100916.00;;;;10476453;28;20205;-75
2022/06/29 03:37:27;;;;;;;6.20;4.13;;;;;13.40;100915.00;;;;10481988;28;20213;-75
2022/06/29 03:42:29;;;;;;;5.60;4.47;;;;;13.50;100923.00;;;;10480957;28;20255;-75
2022/06/29 03:47:31;;;;;;;5.60;4.40;;;;;13.50;100910.00;;;;10465283;28;20552;-75
2022/06/29 03:52:33;;;;;;;11.23;4.90;;;;;13.50;100921.00;;;;10481806;28;20243;-75
2022/06/29 03:57:35;;;;;;;6.27;4.73;;;;;13.60;100916.00;;;;10459529;28;20220;-75
2022/06/29 04:02:38;;;;;;;6.87;4.70;;;;;13.60;100909.00;;;;10490668;28;20197;-75
2022/06/29 04:07:40;;;;;;;6.60;4.80;;;;;13.70;100925.00;;;;10447889;28;20189;-75
2022/06/29 04:12:42;;;;;;;6.03;4.53;;;;;13.80;100914.00;;;;10448253;28;20243;-75
2022/06/29 04:17:44;;;;;;;8.03;4.97;;;;;13.90;100918.00;;;;10470045;28;20223;-75
2022/06/29 04:22:46;;;;;;;5.60;4.57;;;;;14.00;100920.00;;;;10505531;28;20437;-75
2022/06/29 04:27:48;;;;;;;5.50;4.40;;;;;14.10;100905.00;;;;10472789;28;20712;-75
2022/06/29 04:32:52;;;;;;;4.90;4.17;;;;;14.40;100906.00;;;;10488265;28;20189;-75
2022/06/29 04:37:54;;;;;;;5.83;4.47;;;;;14.60;100913.00;;;;10505012;28;20280;-75
2022/06/29 04:42:56;;;;;;;9.23;4.70;;;;;14.80;100912.00;;;;10488993;28;20551;-75
2022/06/29 04:48:01;;;;;;;6.73;4.73;;;;;14.90;100905.00;;;;10487727;28;20197;-75
2022/06/29 04:53:03;;;;;;;7.60;5.10;;;;;15.20;100899.00;;;;10487177;28;20595;-74
2022/06/29 04:58:05;;;;;;;5.90;4.40;;;;;15.40;100890.00;;;;10504042;28;20212;-75
2022/06/29 05:03:07;;;;;;;7.87;5.00;;;;;15.80;100886.00;;;;10466867;28;20212;-75
2022/06/29 05:08:10;;;;;;;9.10;5.20;;;;;16.40;100901.00;;;;10478828;28;20287;-75
2022/06/29 05:13:12;;;;;;;7.47;5.10;;;;;16.90;100893.00;;;;10462734;28;20285;-75
2022/06/29 05:18:16;;;;;;;7.53;4.40;;;;;17.50;100901.00;;;;10494933;28;20199;-75
2022/06/29 05:23:30;;;;;;;8.88;3.80;;;;;18.10;100901.00;;;;10486523;28;20225;-75
2022/06/29 05:28:33;;;;;;;4.90;3.90;;;;;18.60;100893.00;;;;10502816;28;20196;-75
2022/06/29 05:33:36;;;;;;;7.22;3.80;;;;;19.00;100906.00;;;;10503154;28;20746;-75
2022/06/29 05:38:38;;;;;;;4.82;3.22;;;;;19.70;100904.00;;;;10486395;28;20681;-75
2022/06/29 05:43:40;;;;;;;5.53;3.08;;;;;20.60;100900.00;;;;10519045;28;20227;-75
2022/06/29 05:48:42;;;;;;;5.35;2.95;;;;;21.40;100897.00;;;;10485322;28;20651;-75
2022/06/29 05:53:44;;;;;;;5.95;2.78;;;;;22.10;100907.00;;;;10485381;28;20263;-75
2022/06/29 05:58:47;;;;;;;6.25;2.80;;;;;22.30;100890.00;;;;10501814;28;20211;-75
2022/06/29 06:03:49;;;;;;;3.92;2.50;;;;;22.10;100907.00;;;;10461300;28;20204;-75
2022/06/29 06:08:51;;;;;;;6.95;3.13;;;;;22.10;100903.00;;;;10468610;28;20193;-75
2022/06/29 06:13:53;;;;;;;7.57;2.88;;;;;22.80;100905.00;;;;10485242;28;20620;-76
2022/06/29 06:18:55;;;;;;;7.90;3.05;;;;;22.40;100906.00;;;;10468890;28;20285;-75
2022/06/29 06:23:57;;;;;;;3.97;2.47;;;;;22.50;100911.00;;;;10451589;28;20217;-75
2022/06/29 06:29:01;;;;;;;8.43;2.83;;;;;23.30;100901.00;;;;10451942;28;20220;-76
2022/06/29 06:34:02;;;;;;;3.92;2.30;;;;;24.00;100903.00;;;;10470682;28;20220;-76
2022/06/29 06:39:05;;;;;;;4.38;1.83;;;;;24.60;100897.00;;;;10501102;28;20205;-76
2022/06/29 06:44:06;;;;;;;3.58;1.70;;;;;25.20;100886.00;;;;10483808;28;20197;-76
2022/06/29 06:49:08;;;;;;;4.15;1.83;;;;;25.80;100880.00;;;;10500723;28;20190;-75
2022/06/29 06:54:10;;;;;;;7.47;1.98;;;;;26.50;100887.00;;;;10483625;28;20247;-75
2022/06/29 06:59:12;;;;;;;2.38;1.55;;;;;26.80;100886.00;;;;10508183;28;20691;-76
2022/06/29 07:04:14;;;;;;;3.30;1.60;;;;;27.30;100886.00;;;;10481157;28;20221;-75
2022/06/29 07:09:17;;;;;;;3.50;1.60;;;;;27.60;100893.00;;;;10465995;28;20243;-76
2022/06/29 07:14:19;;;;;;;2.90;1.60;;;;;28.10;100895.00;;;;10465185;28;20201;-76
2022/06/29 07:19:21;;;;;;;3.28;1.70;;;;;28.40;100885.00;;;;10465262;28;20288;-76
2022/06/29 07:24:23;;;;;;;5.07;1.83;;;;;28.60;100884.00;;;;10523692;28;20194;-73
2022/06/29 07:29:25;;;;;;;5.55;1.90;;;;;29.00;100879.00;;;;10490620;28;20193;-74
2022/06/29 07:34:27;;;;;;;3.38;1.70;;;;;29.30;100873.00;;;;10465433;28;20320;-73
2022/06/29 07:39:30;;;;;;;6.93;1.48;;;;;29.70;100877.00;;;;10481946;28;20231;-73
2022/06/29 07:44:51;;;;;;;5.35;1.48;;;;;29.90;100880.00;;;;10499118;28;20181;-74
2022/06/29 07:49:54;;;;;;;3.92;1.73;;;;;30.30;100869.00;;;;10465143;28;20598;-73
2022/06/29 07:54:56;;;;;;;5.63;1.65;;;;;30.60;100877.00;;;;10496539;28;20309;-73
2022/06/29 07:59:57;;;;;;;4.55;1.52;;;;;30.80;100857.00;;;;10479863;28;20213;-74
2022/06/29 08:05:01;;;;;;;8.02;2.05;;;;;31.00;100870.00;;;;10502114;28;20195;-74
2022/06/29 08:10:08;;;;;;;4.60;1.77;;;;;31.30;100859.00;;;;10503650;28;20189;-73
2022/06/29 08:15:10;;;;;;;5.00;1.77;;;;;31.60;100867.00;;;;10542063;28;20265;-74
2022/06/29 08:20:12;;;;;;;5.78;1.30;;;;;32.10;100856.00;;;;10511268;28;20650;-74
2022/06/29 08:25:14;;;;;;;5.13;1.90;;;;;32.50;100864.00;;;;10536377;28;20189;-74
2022/06/29 08:30:17;;;;;;;5.05;1.25;;;;;32.60;100865.00;;;;10486637;28;20201;-74
2022/06/29 08:35:19;;;;;;;4.25;1.42;;;;;32.60;100858.00;;;;10495437;28;20208;-73
2022/06/29 08:40:21;;;;;;;2.92;1.45;;;;;33.00;100858.00;;;;10533081;28;20585;-73
2022/06/29 08:45:23;;;;;;;6.93;2.10;;;;;33.10;100858.00;;;;10518239;28;20193;-73
2022/06/29 08:50:25;;;;;;;3.58;1.80;;;;;33.30;100854.00;;;;10536367;28;20185;-74
2022/06/29 08:55:28;;;;;;;4.68;1.70;;;;;33.80;100847.00;;;;10518860;28;20682;-74
2022/06/29 09:00:30;;;;;;;4.47;1.48;;;;;34.10;100853.00;;;;10496371;28;20204;-74
2022/06/29 09:05:33;;;;;;;2.55;1.60;;;;;34.40;100848.00;;;;10541397;28;20189;-74
2022/06/29 09:10:35;;;;;;;1.58;1.25;;;;;34.40;100843.00;;;;10537005;28;20222;-73
2022/06/29 09:15:39;;;;;;;3.80;1.42;;;;;34.90;100846.00;;;;10477386;28;20296;-74
2022/06/29 09:20:42;;;;;;;3.10;1.50;;;;;35.10;100839.00;;;;10468640;28;20238;-73
2022/06/29 09:25:48;;;;;;;5.20;1.65;;;;;35.50;100843.00;;;;10512365;28;20232;-74
2022/06/29 09:30:54;;;;;;;3.70;1.52;;;;;34.90;100854.00;;;;10494784;28;20611;-73
2022/06/29 09:36:08;;;;;;;5.25;1.33;;;;;34.30;100843.00;;;;10456484;28;20206;-74
2022/06/29 09:41:13;;;;;;;3.92;1.60;;;;;35.00;100844.00;;;;10460222;28;20542;-74
2022/06/29 09:46:16;;;;;;;5.68;1.92;;;;;35.50;100838.00;;;;10488325;28;20281;-74
2022/06/29 09:51:33;;;;;;;3.50;1.48;;;;;35.80;100833.00;;;;10491988;28;20197;-74
2022/06/29 09:56:41;;;;;;;4.10;1.13;;;;;36.00;100838.00;;;;10498203;28;20730;-75
2022/06/29 10:07:04;;;;;;;5.45;1.13;;;;;35.50;100825.00;;;;10518920;28;20828;-74
2022/06/29 10:18:06;;;;;;;4.43;1.60;;;;;36.10;100819.00;;;;10507640;28;20288;-74
2022/06/29 10:23:51;;;;;;;3.50;1.50;;;;;36.70;100812.00;;;;10488472;28;20198;-74
2022/06/29 10:28:55;;;;;;;6.10;1.50;;;;;37.20;100817.00;;;;10502863;28;20250;-74
2022/06/29 10:33:57;;;;;;;3.42;1.33;;;;;37.90;100815.00;;;;10490057;28;20217;-74
2022/06/29 10:38:59;;;;;;;4.70;1.50;;;;;38.40;100810.00;;;;10485855;28;20577;-73
2022/06/29 10:44:01;;;;;;;2.60;1.30;;;;;37.90;100810.00;;;;10506725;28;20651;-75
2022/06/29 10:49:21;;;;;;;2.85;1.27;;;;;37.70;100814.00;;;;10457534;28;20197;-74
2022/06/29 10:54:29;;;;;;;5.30;1.15;;;;;37.30;100803.00;;;;10472555;28;20200;-74
2022/06/29 10:59:38;;;;;;;4.18;1.50;;;;;37.10;100799.00;;;;10509695;28;20212;-74
2022/06/29 11:04:42;;;;;;;3.22;1.80;;;;;37.30;100795.00;;;;10490986;28;20204;-74
2022/06/29 11:20:27;;;;;;;3.38;1.50;;;;;38.30;100790.00;;;;10550147;28;20602;-74
2022/06/29 11:25:35;;;;;;;1.98;1.60;;;;;38.00;100783.00;;;;10465677;28;20302;-74
2022/06/29 11:30:37;;;;;;;2.45;1.45;;;;;38.20;100777.00;;;;10501742;28;20200;-75
2022/06/29 11:35:42;;;;;;;4.68;1.80;;;;;37.20;100787.00;;;;10492955;28;20194;-75
2022/06/29 11:40:46;;;;;;;6.88;1.73;;;;;38.40;100788.00;;;;10502628;28;20192;-75
2022/06/29 11:46:23;;;;;;;4.05;1.42;;;;;38.90;100779.00;;;;10516013;28;20277;-75
2022/06/29 11:51:27;;;;;;;4.25;1.40;;;;;38.10;100772.00;;;;10516437;28;20235;-75
2022/06/29 11:56:31;;;;;;;2.42;1.50;;;;;37.90;100766.00;;;;10533797;28;20267;-75
2022/06/29 12:01:32;;;;;;;3.67;1.27;;;;;36.90;100771.00;;;;10492121;28;20200;-75
2022/06/29 12:06:36;;;;;;;4.25;1.83;;;;;35.40;100755.00;;;;10516113;28;20217;-74
2022/06/29 12:11:38;;;;;;;4.78;1.52;;;;;36.50;100760.00;;;;10480605;28;20209;-75
2022/06/29 12:16:40;;;;;;;2.22;1.70;;;;;37.20;100763.00;;;;10494257;28;20193;-75
2022/06/29 12:21:43;;;;;;;6.90;2.08;;;;;36.40;100770.00;;;;10462853;28;20229;-74
2022/06/29 12:26:46;;;;;;;8.30;1.92;;;;;35.10;100755.00;;;;10446304;28;20221;-75
2022/06/29 12:31:48;;;;;;;3.85;1.80;;;;;36.80;100750.00;;;;10471460;28;20203;-75
2022/06/29 12:36:51;;;;;;;2.78;1.30;;;;;36.60;100750.00;;;;10487953;28;20226;-74
2022/06/29 12:41:53;;;;;;;3.70;1.92;;;;;37.30;100757.00;;;;10504758;28;20193;-75
2022/06/29 12:46:56;;;;;;;3.55;1.58;;;;;36.80;100741.00;;;;10522461;28;20680;-75
2022/06/29 12:51:58;;;;;;;3.60;1.50;;;;;36.80;100746.00;;;;10501896;28;20225;-74
2022/06/29 12:57:00;;;;;;;1.83;1.17;;;;;35.20;100744.00;;;;10463730;28;20213;-74
2022/06/29 13:02:02;;;;;;;6.07;1.73;;;;;36.50;100728.00;;;;10457642;28;20197;-74
2022/06/29 13:07:04;;;;;;;8.00;1.60;;;;;37.10;100736.00;;;;10486723;28;20206;-75
2022/06/29 13:12:07;;;;;;;7.22;1.60;;;;;36.10;100745.00;;;;10506874;28;20217;-74
2022/06/29 13:17:09;;;;;;;6.38;1.95;;;;;34.30;100747.00;;;;10493611;28;20233;-75
2022/06/29 13:22:12;;;;;;;7.82;1.70;;;;;34.00;100736.00;;;;10508619;28;20212;-74
2022/06/29 13:27:14;;;;;;;7.00;1.55;;;;;35.40;100729.00;;;;10530609;28;20216;-74
2022/06/29 13:32:17;;;;;;;1.92;0.73;;;;;35.40;100715.00;;;;10488088;28;20655;-74
2022/06/29 13:37:19;;;;;;;2.45;1.30;;;;;33.60;100723.00;;;;10494236;28;20185;-74
2022/06/29 13:42:22;;;;;;;6.38;1.70;;;;;33.80;100715.00;;;;10491010;28;20293;-74
2022/06/29 13:47:25;;;;;;;5.15;1.50;;;;;34.60;100724.00;;;;10535455;28;20228;-74
2022/06/29 13:52:27;;;;;;;3.90;1.60;;;;;34.40;100716.00;;;;10555595;28;20200;-74
2022/06/29 13:57:28;;;;;;;3.65;1.48;;;;;34.40;100709.00;;;;10548399;28;20209;-73
2022/06/29 14:02:30;;;;;;;4.00;1.20;;;;;34.60;100700.00;;;;10489334;28;20204;-74
2022/06/29 14:07:32;;;;;;;5.07;1.48;;;;;35.40;100708.00;;;;10501477;28;20620;-74
2022/06/29 14:12:54;;;;;;;5.50;1.50;;;;;35.90;100723.00;;;;10488998;28;20227;-74
2022/06/29 14:17:56;;;;;;;3.88;1.42;;;;;37.20;100717.00;;;;10478072;28;20635;-75
2022/06/29 14:22:59;;;;;;;4.78;1.50;;;;;39.00;100708.00;;;;10502193;28;20193;-74
2022/06/29 14:28:01;;;;;;;4.38;1.20;;;;;40.30;100703.00;;;;10541017;28;20228;-74
2022/06/29 14:33:03;;;;;;;4.45;1.67;;;;;42.00;100701.00;;;;10515536;28;20193;-74
2022/06/29 14:38:05;;;;;;;3.38;1.20;;;;;42.90;100710.00;;;;10493615;28;20300;-73
2022/06/29 14:43:09;;;;;;;2.22;1.38;;;;;43.20;100701.00;;;;10496992;28;20631;-74
2022/06/29 14:48:11;;;;;;;3.63;1.15;;;;;43.50;100689.00;;;;10493217;28;20217;-76
2022/06/29 14:53:12;;;;;;;5.70;1.20;;;;;42.60;100692.00;;;;10452114;28;20190;-75
2022/06/29 14:58:15;;;;;;;3.38;0.93;;;;;40.60;100684.00;;;;10529735;28;20284;-74
2022/06/29 15:03:17;;;;;;;5.25;1.05;;;;;41.60;100684.00;;;;10479187;28;20193;-75
2022/06/29 15:08:19;;;;;;;3.60;1.20;;;;;42.40;100682.00;;;;10508843;28;20320;-75
2022/06/29 15:13:21;;;;;;;3.05;1.23;;;;;43.00;100672.00;;;;10484997;28;20189;-75
2022/06/29 15:18:23;;;;;;;2.10;1.08;;;;;43.50;100665.00;;;;10488995;28;20275;-75
2022/06/29 15:23:25;;;;;;;2.30;1.17;;;;;43.10;100655.00;;;;10519367;28;20206;-74
2022/06/29 15:28:41;;;;;;;3.75;1.20;;;;;41.40;100657.00;;;;10493302;28;20214;-74
2022/06/29 15:39:05;;;;;;;3.88;1.10;;;;;42.20;100659.00;;;;10499763;28;20184;-75
2022/06/29 15:44:08;;;;;;;2.13;1.05;;;;;38.00;100656.00;;;;10483421;28;20206;-74
2022/06/29 15:49:10;;;;;;;2.58;1.15;;;;;36.20;100645.00;;;;10502235;28;20213;-74
2022/06/29 15:59:33;;;;;;;2.88;1.13;;;;;33.60;100634.00;;;;10468189;28;20221;-74
2022/06/29 16:04:35;;;;;;;3.20;1.20;;;;;32.50;100641.00;;;;10520254;28;20281;-75
2022/06/29 16:09:38;;;;;;;4.47;1.42;;;;;32.60;100640.00;;;;10534696;28;20737;-74
2022/06/29 16:14:41;;;;;;;2.13;1.17;;;;;31.70;100634.00;;;;10482144;28;20211;-74
2022/06/29 16:19:43;;;;;;;1.98;1.00;;;;;31.00;100625.00;;;;10488959;28;20196;-74
2022/06/29 16:24:46;;;;;;;2.75;1.40;;;;;30.50;100626.00;;;;10474844;28;20292;-74
2022/06/29 16:29:48;;;;;;;3.53;1.40;;;;;30.20;100625.00;;;;10532855;28;20211;-74
2022/06/29 16:34:50;;;;;;;3.22;1.30;;;;;29.80;100612.00;;;;10496692;28;20625;-74
2022/06/29 16:39:52;;;;;;;2.42;1.15;;;;;29.60;100608.00;;;;10506142;28;20204;-74
2022/06/29 16:44:54;;;;;;;4.97;1.17;;;;;29.40;100610.00;;;;10516814;28;20213;-74
2022/06/29 16:49:58;;;;;;;3.92;1.65;;;;;29.20;100600.00;;;;10501923;28;20501;-74
2022/06/29 16:55:01;;;;;;;4.18;1.23;;;;;29.00;100607.00;;;;10524037;28;20188;-74
2022/06/29 17:00:05;;;;;;;2.95;1.38;;;;;28.70;100600.00;;;;10518031;28;20213;-74
2022/06/29 17:05:08;;;;;;;2.03;1.02;;;;;28.60;100593.00;;;;10531453;28;20222;-74
2022/06/29 17:10:10;;;;;;;3.60;0.80;;;;;28.50;100583.00;;;;10507579;28;20610;-74
2022/06/29 17:15:12;;;;;;;3.67;1.10;;;;;28.30;100591.00;;;;10531055;28;20189;-74
2022/06/29 17:20:14;;;;;;;5.15;1.30;;;;;28.30;100583.00;;;;10490139;28;20559;-75
2022/06/29 17:25:17;;;;;;;4.80;1.25;;;;;28.30;100575.00;;;;10528438;28;20804;-74
2022/06/29 17:30:19;;;;;;;1.85;1.10;;;;;28.10;100579.00;;;;10507931;28;20197;-74
2022/06/29 17:35:21;;;;;;;1.80;0.90;;;;;27.90;100566.00;;;;10502220;28;20184;-74
2022/06/29 17:40:24;;;;;;;4.50;1.17;;;;;27.80;100568.00;;;;10503390;28;20197;-74
2022/06/29 17:45:26;;;;;;;3.22;1.30;;;;;27.80;100559.00;;;;10512642;28;20218;-74
2022/06/29 17:50:28;;;;;;;4.03;1.20;;;;;27.70;100564.00;;;;10455276;28;20205;-74
2022/06/29 17:55:31;;;;;;;3.42;1.10;;;;;27.30;100554.00;;;;10477732;28;20280;-74
2022/06/29 18:00:33;;;;;;;3.17;1.05;;;;;27.20;100559.00;;;;10500981;28;20220;-74
2022/06/29 18:05:35;;;;;;;3.03;1.20;;;;;27.00;100563.00;;;;10510170;28;20200;-73
2022/06/29 18:10:37;;;;;;;1.70;1.10;;;;;26.90;100557.00;;;;10540543;28;20188;-74
2022/06/29 18:15:39;;;;;;;3.78;1.65;;;;;26.80;100552.00;;;;10481936;28;20189;-74
2022/06/29 18:20:42;;;;;;;4.03;1.15;;;;;26.50;100561.00;;;;10506306;28;20196;-74
2022/06/29 18:25:44;;;;;;;4.28;1.20;;;;;26.30;100560.00;;;;10543184;28;20220;-74
2022/06/29 18:30:48;;;;;;;2.78;1.10;;;;;26.30;100552.00;;;;10511587;28;20558;-74
2022/06/29 18:35:51;;;;;;;2.72;1.20;;;;;26.20;100547.00;;;;10476343;28;20193;-74
2022/06/29 18:40:53;;;;;;;1.92;0.98;;;;;26.00;100547.00;;;;10442745;28;20198;-74
2022/06/29 18:45:55;;;;;;;3.38;1.30;;;;;25.80;100552.00;;;;10443029;28;20205;-74
2022/06/29 18:50:57;;;;;;;2.03;1.20;;;;;25.80;100555.00;;;;10459712;28;20201;-74
2022/06/29 18:55:59;;;;;;;2.05;1.08;;;;;25.70;100547.00;;;;10459509;28;20197;-74
2022/06/29 19:01:01;;;;;;;1.83;1.10;;;;;25.60;100557.00;;;;10459095;28;20275;-74
2022/06/29 19:06:03;;;;;;;4.55;1.70;;;;;25.40;100551.00;;;;10516809;28;20205;-74
2022/06/29 19:16:26;;;;;;;4.05;1.92;;;;;25.40;100554.00;;;;10506189;28;20663;-74
2022/06/29 19:21:28;;;;;;;2.53;1.27;;;;;25.30;100556.00;;;;10491235;28;20204;-73
2022/06/29 19:26:31;;;;;;;3.60;1.13;;;;;25.00;100550.00;;;;10506686;28;20209;-73
2022/06/29 19:31:33;;;;;;;3.08;1.10;;;;;24.60;100550.00;;;;10511070;28;20196;-73
2022/06/29 19:36:35;;;;;;;2.70;1.35;;;;;24.30;100553.00;;;;10464860;28;20667;-74
2022/06/29 19:41:37;;;;;;;3.00;1.48;;;;;24.10;100562.00;;;;10541254;28;20706;-73
2022/06/29 19:46:45;;;;;;;5.00;1.50;;;;;23.90;100559.00;;;;10519256;28;20619;-73
2022/06/29 19:51:47;;;;;;;2.50;1.40;;;;;23.50;100574.00;;;;10481292;28;20209;-74
2022/06/29 19:56:49;;;;;;;6.03;1.23;;;;;23.20;100583.00;;;;10486822;28;20216;-74
2022/06/29 20:01:53;;;;;;;3.47;1.30;;;;;22.90;100583.00;;;;10539705;28;20304;-74
2022/06/29 20:06:55;;;;;;;3.05;1.30;;;;;22.70;100579.00;;;;10508710;28;20220;-73
2022/06/29 20:11:57;;;;;;;2.00;1.40;;;;;22.50;100588.00;;;;10501000;28;20200;-74
2022/06/29 20:16:58;;;;;;;3.40;1.35;;;;;22.30;100593.00;;;;10504706;28;20215;-74
2022/06/29 20:22:00;;;;;;;6.13;1.80;;;;;22.10;100598.00;;;;10495451;28;20213;-74
2022/06/29 20:27:03;;;;;;;4.40;1.70;;;;;21.90;100592.00;;;;10504102;28;20240;-74
2022/06/29 20:32:05;;;;;;;3.28;2.38;;;;;21.80;100602.00;;;;10487419;28;20192;-74
2022/06/29 20:37:07;;;;;;;5.13;1.85;;;;;21.60;100595.00;;;;10497004;28;20863;-74
2022/06/29 20:42:09;;;;;;;2.20;1.60;;;;;21.50;100603.00;;;;10540079;28;20211;-76
2022/06/29 20:47:11;;;;;;;3.58;1.38;;;;;21.40;100610.00;;;;10492914;28;20221;-76
2022/06/29 20:52:13;;;;;;;2.75;1.70;;;;;21.30;100611.00;;;;10510694;28;20205;-76
2022/06/29 20:57:15;;;;;;;7.65;2.15;;;;;21.10;100612.00;;;;10520090;28;20619;-76
2022/06/29 21:02:17;;;;;;;6.40;2.05;;;;;20.90;100612.00;;;;10461637;28;20197;-76
2022/06/29 21:07:19;;;;;;;7.90;2.67;;;;;20.90;100608.00;;;;10477959;28;20213;-74
2022/06/29 21:12:21;;;;;;;8.07;2.00;;;;;20.80;100612.00;;;;10478167;28;20253;-77
2022/06/29 21:17:24;;;;;;;3.70;1.95;;;;;20.70;100613.00;;;;10545065;28;20211;-76
2022/06/29 21:22:26;;;;;;;5.55;1.90;;;;;20.50;100608.00;;;;10511462;28;20737;-76
2022/06/29 21:27:28;;;;;;;5.05;2.20;;;;;20.40;100608.00;;;;10561392;28;20705;-76
2022/06/29 21:32:30;;;;;;;6.22;3.30;;;;;20.30;100612.00;;;;10546203;28;20271;-76
2022/06/29 21:37:32;;;;;;;8.35;2.50;;;;;20.20;100598.00;;;;10502241;28;20181;-76
2022/06/29 21:42:34;;;;;;;7.03;2.10;;;;;20.10;100609.00;;;;10502159;28;20563;-76
2022/06/29 21:47:42;;;;;;;6.13;2.30;;;;;20.10;100601.00;;;;10463295;28;20224;-76
2022/06/29 21:52:45;;;;;;;5.38;1.92;;;;;20.00;100607.00;;;;10460269;28;20197;-76
2022/06/29 21:57:47;;;;;;;5.20;2.28;;;;;19.90;100603.00;;;;10487353;28;20208;-76
2022/06/29 22:02:49;;;;;;;11.00;2.72;;;;;19.80;100613.00;;;;10542025;28;20215;-76
2022/06/29 22:07:51;;;;;;;10.15;2.90;;;;;19.70;100611.00;;;;10543970;28;20298;-76
2022/06/29 22:12:53;;;;;;;8.68;2.55;;;;;19.70;100611.00;;;;10523161;28;20548;-76
2022/06/29 22:17:55;;;;;;;7.50;2.22;;;;;19.60;100613.00;;;;10484503;28;20189;-76
2022/06/29 22:22:57;;;;;;;4.78;2.58;;;;;19.60;100606.00;;;;10485126;28;20192;-76
2022/06/29 22:28:00;;;;;;;5.00;2.28;;;;;19.50;100607.00;;;;10484797;28;20217;-76
2022/06/29 22:33:02;;;;;;;5.90;2.60;;;;;19.40;100604.00;;;;10501005;28;20656;-76
2022/06/29 22:38:04;;;;;;;4.07;1.80;;;;;19.20;100590.00;;;;10500615;28;20192;-76
2022/06/29 22:43:06;;;;;;;5.88;2.10;;;;;19.00;100595.00;;;;10501240;28;20189;-76
2022/06/29 22:48:08;;;;;;;6.20;2.50;;;;;18.90;100601.00;;;;10521663;28;20225;-76
2022/06/29 22:53:10;;;;;;;4.15;2.47;;;;;18.70;100607.00;;;;10491371;28;20664;-76
2022/06/29 22:58:12;;;;;;;8.85;2.35;;;;;18.70;100608.00;;;;10497862;28;20567;-76
2022/06/29 23:03:14;;;;;;;6.20;2.30;;;;;18.60;100597.00;;;;10490017;28;20254;-76
2022/06/29 23:08:16;;;;;;;6.13;2.72;;;;;18.40;100592.00;;;;10490276;28;20852;-76
2022/06/29 23:13:18;;;;;;;6.85;2.83;;;;;18.30;100587.00;;;;10508113;28;20238;-76
2022/06/29 23:18:20;;;;;;;10.50;3.67;;;;;18.20;100595.00;;;;10491927;28;20193;-76
2022/06/29 23:23:22;;;;;;;4.88;2.58;;;;;18.10;100593.00;;;;10490999;28;20235;-76
2022/06/29 23:28:24;;;;;;;7.50;3.40;;;;;18.00;100603.00;;;;10524517;28;20794;-76
2022/06/29 23:33:28;;;;;;;7.87;3.57;;;;;18.00;100604.00;;;;10507082;28;20215;-76
2022/06/29 23:38:30;;;;;;;9.13;3.72;;;;;17.90;100601.00;;;;10507558;28;20292;-76
2022/06/29 23:43:32;;;;;;;11.27;4.63;;;;;17.90;100605.00;;;;10507291;28;20220;-76
2022/06/29 23:48:35;;;;;;;12.27;5.95;;;;;17.90;100617.00;;;;10523742;28;20212;-76
2022/06/29 23:53:37;;;;;;;10.05;7.10;;;;;17.80;100621.00;;;;10507145;28;20555;-76
2022/06/29 23:58:39;;;;;;;13.97;6.77;;;;;17.70;100625.00;;;;10505699;28;20254;-76
